sensor_id;sensor_type;location;lat;lon;timestamp;pressure;altitude;pressure_sealevel;temperature;humidity
72118;BME280;59992;47.490;8.736;2023-08-07T00:02:10;96772.23;;;12.37;81.74
72118;BME280;59992;47.490;8.736;2023-08-07T00:05:00;96769.89;;;12.39;82.28
72118;BME280;59992;47.490;8.736;2023-08-07T00:07:51;96767.56;;;12.41;81.89
72118;BME280;59992;47.490;8.736;2023-08-07T00:10:41;96769.48;;;12.44;82.41
72118;BME280;59992;47.490;8.736;2023-08-07T00:13:31;96768.43;;;12.45;82.66
72118;BME280;59992;47.490;8.736;2023-08-07T00:16:21;96765.23;;;12.44;83.22
72118;BME280;59992;47.490;8.736;2023-08-07T00:19:12;96762.27;;;12.45;81.86
72118;BME280;59992;47.490;8.736;2023-08-07T00:22:02;96759.16;;;12.44;83.84
72118;BME280;59992;47.490;8.736;2023-08-07T00:24:52;96750.64;;;12.43;82.28
72118;BME280;59992;47.490;8.736;2023-08-07T00:27:42;96748.16;;;12.46;80.43
72118;BME280;59992;47.490;8.736;2023-08-07T00:30:32;96747.63;;;12.46;79.86
72118;BME280;59992;47.490;8.736;2023-08-07T00:33:22;96738.54;;;12.50;79.68
72118;BME280;59992;47.490;8.736;2023-08-07T00:36:12;96740.25;;;12.55;79.29
72118;BME280;59992;47.490;8.736;2023-08-07T00:39:03;96742.41;;;12.59;79.47
72118;BME280;59992;47.490;8.736;2023-08-07T00:41:53;96741.58;;;12.59;79.48
72118;BME280;59992;47.490;8.736;2023-08-07T00:44:43;96739.88;;;12.55;78.76
72118;BME280;59992;47.490;8.736;2023-08-07T00:47:33;96740.79;;;12.55;78.35
72118;BME280;59992;47.490;8.736;2023-08-07T00:50:23;96741.55;;;12.55;78.79
72118;BME280;59992;47.490;8.736;2023-08-07T00:53:14;96739.66;;;12.56;78.90
72118;BME280;59992;47.490;8.736;2023-08-07T00:56:05;96742.25;;;12.57;79.72
72118;BME280;59992;47.490;8.736;2023-08-07T00:58:56;96746.03;;;12.56;80.22
72118;BME280;59992;47.490;8.736;2023-08-07T01:01:46;96740.28;;;12.57;80.15
72118;BME280;59992;47.490;8.736;2023-08-07T01:04:37;96739.05;;;12.55;79.24
72118;BME280;59992;47.490;8.736;2023-08-07T01:07:27;96741.86;;;12.56;80.31
72118;BME280;59992;47.490;8.736;2023-08-07T01:10:17;96739.34;;;12.54;80.27
72118;BME280;59992;47.490;8.736;2023-08-07T01:13:14;96741.89;;;12.50;79.50
72118;BME280;59992;47.490;8.736;2023-08-07T01:16:11;96745.83;;;12.48;80.13
72118;BME280;59992;47.490;8.736;2023-08-07T01:19:04;96745.34;;;12.46;80.67
72118;BME280;59992;47.490;8.736;2023-08-07T01:22:08;96743.66;;;12.44;80.04
72118;BME280;59992;47.490;8.736;2023-08-07T01:24:58;96741.55;;;12.38;80.93
72118;BME280;59992;47.490;8.736;2023-08-07T01:28:01;96734.77;;;12.33;80.56
72118;BME280;59992;47.490;8.736;2023-08-07T01:30:58;96736.69;;;12.30;81.76
72118;BME280;59992;47.490;8.736;2023-08-07T01:33:53;96741.77;;;12.28;82.12
72118;BME280;59992;47.490;8.736;2023-08-07T01:36:47;96741.20;;;12.24;83.21
72118;BME280;59992;47.490;8.736;2023-08-07T01:39:38;96738.60;;;12.22;81.48
72118;BME280;59992;47.490;8.736;2023-08-07T01:42:29;96734.30;;;12.18;82.04
72118;BME280;59992;47.490;8.736;2023-08-07T01:45:25;96736.25;;;12.14;82.67
72118;BME280;59992;47.490;8.736;2023-08-07T01:48:16;96738.19;;;12.11;82.16
72118;BME280;59992;47.490;8.736;2023-08-07T01:51:05;96741.59;;;12.02;82.34
72118;BME280;59992;47.490;8.736;2023-08-07T01:53:56;96745.33;;;11.97;82.14
72118;BME280;59992;47.490;8.736;2023-08-07T01:56:46;96739.51;;;11.91;83.26
72118;BME280;59992;47.490;8.736;2023-08-07T01:59:36;96744.92;;;11.86;83.11
72118;BME280;59992;47.490;8.736;2023-08-07T02:02:26;96751.02;;;11.83;83.35
72118;BME280;59992;47.490;8.736;2023-08-07T02:05:16;96756.08;;;11.81;83.99
72118;BME280;59992;47.490;8.736;2023-08-07T02:08:07;96760.27;;;11.80;83.99
72118;BME280;59992;47.490;8.736;2023-08-07T02:10:57;96757.31;;;11.75;84.20
72118;BME280;59992;47.490;8.736;2023-08-07T02:13:50;96767.23;;;11.74;85.53
72118;BME280;59992;47.490;8.736;2023-08-07T02:16:40;96766.98;;;11.71;85.00
72118;BME280;59992;47.490;8.736;2023-08-07T02:19:30;96772.94;;;11.68;85.60
72118;BME280;59992;47.490;8.736;2023-08-07T02:22:20;96774.23;;;11.68;84.36
72118;BME280;59992;47.490;8.736;2023-08-07T02:25:11;96779.27;;;11.66;87.34
72118;BME280;59992;47.490;8.736;2023-08-07T02:28:01;96776.17;;;11.62;86.27
72118;BME280;59992;47.490;8.736;2023-08-07T02:30:51;96775.40;;;11.61;85.86
72118;BME280;59992;47.490;8.736;2023-08-07T02:33:42;96780.16;;;11.58;87.73
72118;BME280;59992;47.490;8.736;2023-08-07T02:36:33;96776.27;;;11.58;88.34
72118;BME280;59992;47.490;8.736;2023-08-07T02:39:24;96776.52;;;11.58;87.61
72118;BME280;59992;47.490;8.736;2023-08-07T02:42:14;96778.73;;;11.60;87.66
72118;BME280;59992;47.490;8.736;2023-08-07T02:45:05;96782.80;;;11.63;88.00
72118;BME280;59992;47.490;8.736;2023-08-07T02:47:55;96788.43;;;11.68;87.58
72118;BME280;59992;47.490;8.736;2023-08-07T02:50:45;96788.38;;;11.71;86.61
72118;BME280;59992;47.490;8.736;2023-08-07T02:53:36;96790.57;;;11.77;86.50
72118;BME280;59992;47.490;8.736;2023-08-07T02:56:26;96787.06;;;11.82;87.31
72118;BME280;59992;47.490;8.736;2023-08-07T02:59:16;96789.51;;;11.84;87.61
72118;BME280;59992;47.490;8.736;2023-08-07T03:02:06;96786.36;;;11.87;87.82
72118;BME280;59992;47.490;8.736;2023-08-07T03:04:56;96786.46;;;11.89;87.47
72118;BME280;59992;47.490;8.736;2023-08-07T03:07:46;96787.54;;;11.90;86.07
72118;BME280;59992;47.490;8.736;2023-08-07T03:10:36;96790.15;;;11.92;86.10
72118;BME280;59992;47.490;8.736;2023-08-07T03:13:26;96790.93;;;11.94;87.19
72118;BME280;59992;47.490;8.736;2023-08-07T03:16:17;96789.53;;;11.99;86.80
72118;BME280;59992;47.490;8.736;2023-08-07T03:19:06;96792.69;;;12.02;86.01
72118;BME280;59992;47.490;8.736;2023-08-07T03:21:56;96793.61;;;12.03;84.76
72118;BME280;59992;47.490;8.736;2023-08-07T03:24:49;96791.02;;;12.04;85.42
72118;BME280;59992;47.490;8.736;2023-08-07T03:27:39;96794.63;;;12.05;84.88
72118;BME280;59992;47.490;8.736;2023-08-07T03:30:29;96793.48;;;12.05;87.04
72118;BME280;59992;47.490;8.736;2023-08-07T03:33:19;96791.75;;;12.07;85.32
72118;BME280;59992;47.490;8.736;2023-08-07T03:36:09;96791.20;;;12.06;84.82
72118;BME280;59992;47.490;8.736;2023-08-07T03:38:59;96788.97;;;12.02;84.40
72118;BME280;59992;47.490;8.736;2023-08-07T03:41:49;96781.55;;;11.98;84.18
72118;BME280;59992;47.490;8.736;2023-08-07T03:44:39;96784.72;;;11.96;84.52
72118;BME280;59992;47.490;8.736;2023-08-07T03:47:29;96785.77;;;11.94;85.98
72118;BME280;59992;47.490;8.736;2023-08-07T03:50:19;96788.70;;;11.92;84.63
72118;BME280;59992;47.490;8.736;2023-08-07T03:53:09;96790.03;;;11.89;85.15
72118;BME280;59992;47.490;8.736;2023-08-07T03:55:59;96789.16;;;11.88;85.66
72118;BME280;59992;47.490;8.736;2023-08-07T03:58:50;96794.22;;;11.85;84.54
72118;BME280;59992;47.490;8.736;2023-08-07T04:01:40;96795.15;;;11.79;86.39
72118;BME280;59992;47.490;8.736;2023-08-07T04:04:30;96800.44;;;11.77;86.64
72118;BME280;59992;47.490;8.736;2023-08-07T04:07:20;96792.91;;;11.76;84.79
72118;BME280;59992;47.490;8.736;2023-08-07T04:10:11;96799.78;;;11.73;85.50
72118;BME280;59992;47.490;8.736;2023-08-07T04:13:01;96805.49;;;11.75;84.95
72118;BME280;59992;47.490;8.736;2023-08-07T04:15:51;96809.21;;;11.75;85.06
72118;BME280;59992;47.490;8.736;2023-08-07T04:18:41;96807.96;;;11.78;84.77
72118;BME280;59992;47.490;8.736;2023-08-07T04:21:32;96805.64;;;11.81;84.85
72118;BME280;59992;47.490;8.736;2023-08-07T04:24:22;96808.02;;;11.83;84.51
72118;BME280;59992;47.490;8.736;2023-08-07T04:27:12;96811.76;;;11.85;84.77
72118;BME280;59992;47.490;8.736;2023-08-07T04:30:03;96809.40;;;11.84;84.46
72118;BME280;59992;47.490;8.736;2023-08-07T04:32:53;96807.91;;;11.86;83.65
72118;BME280;59992;47.490;8.736;2023-08-07T04:35:44;96811.89;;;11.89;83.25
72118;BME280;59992;47.490;8.736;2023-08-07T04:38:35;96816.59;;;11.89;83.98
72118;BME280;59992;47.490;8.736;2023-08-07T04:41:25;96822.02;;;11.93;82.87
72118;BME280;59992;47.490;8.736;2023-08-07T04:44:16;96824.04;;;11.95;83.85
72118;BME280;59992;47.490;8.736;2023-08-07T04:47:07;96826.45;;;11.95;82.72
72118;BME280;59992;47.490;8.736;2023-08-07T04:49:57;96822.30;;;11.98;82.58
72118;BME280;59992;47.490;8.736;2023-08-07T04:52:47;96828.24;;;11.98;82.75
72118;BME280;59992;47.490;8.736;2023-08-07T04:55:37;96832.67;;;12.01;82.19
72118;BME280;59992;47.490;8.736;2023-08-07T04:58:28;96833.27;;;11.99;82.03
72118;BME280;59992;47.490;8.736;2023-08-07T05:01:18;96834.80;;;12.02;81.94
72118;BME280;59992;47.490;8.736;2023-08-07T05:04:08;96832.75;;;12.01;81.28
72118;BME280;59992;47.490;8.736;2023-08-07T05:06:58;96831.49;;;12.04;81.11
72118;BME280;59992;47.490;8.736;2023-08-07T05:09:49;96835.62;;;12.12;81.23
72118;BME280;59992;47.490;8.736;2023-08-07T05:12:39;96833.23;;;12.16;81.13
72118;BME280;59992;47.490;8.736;2023-08-07T05:15:30;96838.41;;;12.25;81.05
72118;BME280;59992;47.490;8.736;2023-08-07T05:18:20;96833.71;;;12.33;80.90
72118;BME280;59992;47.490;8.736;2023-08-07T05:21:10;96832.39;;;12.37;80.41
72118;BME280;59992;47.490;8.736;2023-08-07T05:24:00;96836.63;;;12.43;80.38
72118;BME280;59992;47.490;8.736;2023-08-07T05:26:51;96830.97;;;12.47;79.89
72118;BME280;59992;47.490;8.736;2023-08-07T05:29:41;96829.09;;;12.48;80.01
72118;BME280;59992;47.490;8.736;2023-08-07T05:32:33;96822.33;;;12.55;81.00
72118;BME280;59992;47.490;8.736;2023-08-07T05:35:26;96828.31;;;12.63;79.78
72118;BME280;59992;47.490;8.736;2023-08-07T05:38:16;96830.33;;;12.68;79.84
72118;BME280;59992;47.490;8.736;2023-08-07T05:41:08;96829.42;;;12.77;79.70
72118;BME280;59992;47.490;8.736;2023-08-07T05:43:58;96824.97;;;12.82;78.82
72118;BME280;59992;47.490;8.736;2023-08-07T05:46:49;96823.92;;;12.92;78.43
72118;BME280;59992;47.490;8.736;2023-08-07T05:49:39;96829.83;;;13.25;77.81
72118;BME280;59992;47.490;8.736;2023-08-07T05:52:30;96824.58;;;13.36;75.93
72118;BME280;59992;47.490;8.736;2023-08-07T05:55:20;96820.09;;;13.39;75.30
72118;BME280;59992;47.490;8.736;2023-08-07T05:58:10;96820.52;;;13.47;75.68
72118;BME280;59992;47.490;8.736;2023-08-07T06:01:00;96825.09;;;13.61;74.88
72118;BME280;59992;47.490;8.736;2023-08-07T06:03:51;96834.34;;;14.01;75.51
72118;BME280;59992;47.490;8.736;2023-08-07T06:06:41;96833.25;;;14.14;73.66
72118;BME280;59992;47.490;8.736;2023-08-07T06:09:32;96843.54;;;14.15;74.12
72118;BME280;59992;47.490;8.736;2023-08-07T06:12:22;96850.37;;;14.09;73.60
72118;BME280;59992;47.490;8.736;2023-08-07T06:15:12;96853.75;;;14.00;72.93
72118;BME280;59992;47.490;8.736;2023-08-07T06:18:02;96855.54;;;13.90;72.66
72118;BME280;59992;47.490;8.736;2023-08-07T06:20:52;96852.77;;;13.84;72.96
72118;BME280;59992;47.490;8.736;2023-08-07T06:23:42;96848.22;;;13.71;72.74
72118;BME280;59992;47.490;8.736;2023-08-07T06:26:33;96845.03;;;13.75;72.74
72118;BME280;59992;47.490;8.736;2023-08-07T06:29:23;96849.27;;;13.69;72.45
72118;BME280;59992;47.490;8.736;2023-08-07T06:32:13;96844.90;;;13.65;73.12
72118;BME280;59992;47.490;8.736;2023-08-07T06:35:04;96845.14;;;13.66;73.88
72118;BME280;59992;47.490;8.736;2023-08-07T06:37:54;96841.14;;;13.59;74.37
72118;BME280;59992;47.490;8.736;2023-08-07T06:40:45;96845.48;;;13.57;73.27
72118;BME280;59992;47.490;8.736;2023-08-07T06:43:35;96845.00;;;13.69;74.00
72118;BME280;59992;47.490;8.736;2023-08-07T06:46:25;96850.69;;;13.79;73.91
72118;BME280;59992;47.490;8.736;2023-08-07T06:49:16;96855.40;;;13.92;72.46
72118;BME280;59992;47.490;8.736;2023-08-07T06:52:07;96861.64;;;14.09;72.58
72118;BME280;59992;47.490;8.736;2023-08-07T06:54:57;96865.52;;;14.11;71.16
72118;BME280;59992;47.490;8.736;2023-08-07T06:57:47;96871.14;;;14.07;71.48
72118;BME280;59992;47.490;8.736;2023-08-07T07:00:37;96874.09;;;14.02;71.39
72118;BME280;59992;47.490;8.736;2023-08-07T07:03:28;96881.67;;;14.11;71.80
72118;BME280;59992;47.490;8.736;2023-08-07T07:06:18;96884.67;;;14.15;71.77
72118;BME280;59992;47.490;8.736;2023-08-07T07:09:09;96878.59;;;14.18;70.98
72118;BME280;59992;47.490;8.736;2023-08-07T07:11:59;96888.25;;;14.16;70.69
72118;BME280;59992;47.490;8.736;2023-08-07T07:14:49;96894.65;;;14.18;70.97
72118;BME280;59992;47.490;8.736;2023-08-07T07:17:39;96900.84;;;14.21;72.17
72118;BME280;59992;47.490;8.736;2023-08-07T07:20:29;96901.05;;;14.27;72.74
72118;BME280;59992;47.490;8.736;2023-08-07T07:23:20;96905.66;;;14.37;71.54
72118;BME280;59992;47.490;8.736;2023-08-07T07:26:10;96905.94;;;14.30;70.59
72118;BME280;59992;47.490;8.736;2023-08-07T07:29:00;96909.23;;;14.35;71.61
72118;BME280;59992;47.490;8.736;2023-08-07T07:31:51;96907.06;;;14.46;70.89
72118;BME280;59992;47.490;8.736;2023-08-07T07:34:43;96909.20;;;14.50;70.78
72118;BME280;59992;47.490;8.736;2023-08-07T07:37:33;96909.01;;;14.60;70.56
72118;BME280;59992;47.490;8.736;2023-08-07T07:40:24;96901.85;;;14.62;71.39
72118;BME280;59992;47.490;8.736;2023-08-07T07:43:14;96920.02;;;14.71;70.01
72118;BME280;59992;47.490;8.736;2023-08-07T07:46:04;96920.55;;;14.72;69.47
72118;BME280;59992;47.490;8.736;2023-08-07T07:48:55;96920.17;;;14.74;70.37
72118;BME280;59992;47.490;8.736;2023-08-07T07:51:45;96918.58;;;14.77;70.10
72118;BME280;59992;47.490;8.736;2023-08-07T07:54:36;96925.73;;;14.68;70.58
72118;BME280;59992;47.490;8.736;2023-08-07T07:57:26;96930.46;;;14.68;69.69
72118;BME280;59992;47.490;8.736;2023-08-07T08:00:17;96928.39;;;14.69;70.66
72118;BME280;59992;47.490;8.736;2023-08-07T08:03:07;96937.32;;;14.65;70.87
72118;BME280;59992;47.490;8.736;2023-08-07T08:05:58;96936.52;;;14.54;70.30
72118;BME280;59992;47.490;8.736;2023-08-07T08:08:49;96939.41;;;14.54;70.84
72118;BME280;59992;47.490;8.736;2023-08-07T08:11:39;96944.85;;;14.61;71.03
72118;BME280;59992;47.490;8.736;2023-08-07T08:14:29;96947.02;;;14.74;70.85
72118;BME280;59992;47.490;8.736;2023-08-07T08:17:19;96940.51;;;14.96;69.97
72118;BME280;59992;47.490;8.736;2023-08-07T08:20:11;96943.83;;;15.17;69.59
72118;BME280;59992;47.490;8.736;2023-08-07T08:23:01;96943.52;;;15.31;69.32
72118;BME280;59992;47.490;8.736;2023-08-07T08:25:51;96943.55;;;15.42;69.76
72118;BME280;59992;47.490;8.736;2023-08-07T08:28:42;96941.09;;;15.39;68.07
72118;BME280;59992;47.490;8.736;2023-08-07T08:31:32;96948.37;;;15.45;68.20
72118;BME280;59992;47.490;8.736;2023-08-07T08:34:22;96959.86;;;15.35;70.55
72118;BME280;59992;47.490;8.736;2023-08-07T08:37:12;96963.97;;;15.18;70.83
72118;BME280;59992;47.490;8.736;2023-08-07T08:40:03;96969.57;;;14.66;75.46
72118;BME280;59992;47.490;8.736;2023-08-07T08:42:57;96967.23;;;14.55;76.18
72118;BME280;59992;47.490;8.736;2023-08-07T08:45:49;96968.77;;;14.38;77.26
72118;BME280;59992;47.490;8.736;2023-08-07T08:48:40;96972.60;;;14.44;78.46
72118;BME280;59992;47.490;8.736;2023-08-07T08:51:31;96972.65;;;14.57;78.98
72118;BME280;59992;47.490;8.736;2023-08-07T08:54:22;96969.23;;;14.63;78.42
72118;BME280;59992;47.490;8.736;2023-08-07T08:57:12;96972.41;;;14.74;78.83
72118;BME280;59992;47.490;8.736;2023-08-07T09:00:03;96969.75;;;14.80;76.75
72118;BME280;59992;47.490;8.736;2023-08-07T09:02:59;96976.91;;;15.01;76.65
72118;BME280;59992;47.490;8.736;2023-08-07T09:05:51;96975.13;;;15.30;76.08
72118;BME280;59992;47.490;8.736;2023-08-07T09:08:43;96972.27;;;15.50;77.00
72118;BME280;59992;47.490;8.736;2023-08-07T09:11:35;96972.11;;;15.76;77.15
72118;BME280;59992;47.490;8.736;2023-08-07T09:14:28;96971.09;;;16.05;74.97
72118;BME280;59992;47.490;8.736;2023-08-07T09:17:22;96958.91;;;16.39;74.96
72118;BME280;59992;47.490;8.736;2023-08-07T09:20:13;96956.16;;;16.66;74.09
72118;BME280;59992;47.490;8.736;2023-08-07T09:23:03;96954.35;;;16.74;72.47
72118;BME280;59992;47.490;8.736;2023-08-07T09:26:02;96951.75;;;16.74;72.75
72118;BME280;59992;47.490;8.736;2023-08-07T09:28:53;96953.30;;;17.22;75.57
72118;BME280;59992;47.490;8.736;2023-08-07T09:31:45;96952.38;;;17.92;72.39
72118;BME280;59992;47.490;8.736;2023-08-07T09:34:35;96955.17;;;18.19;68.47
72118;BME280;59992;47.490;8.736;2023-08-07T09:37:25;96960.89;;;18.15;66.20
72118;BME280;59992;47.490;8.736;2023-08-07T09:40:16;96961.19;;;18.16;65.22
72118;BME280;59992;47.490;8.736;2023-08-07T09:43:06;96955.61;;;18.50;67.56
72118;BME280;59992;47.490;8.736;2023-08-07T09:46:04;96953.11;;;18.47;63.72
72118;BME280;59992;47.490;8.736;2023-08-07T09:48:58;96949.97;;;18.03;64.11
72118;BME280;59992;47.490;8.736;2023-08-07T09:51:49;96955.81;;;18.01;64.59
72118;BME280;59992;47.490;8.736;2023-08-07T09:54:40;96955.73;;;18.01;64.53
72118;BME280;59992;47.490;8.736;2023-08-07T09:57:31;96952.86;;;17.83;63.04
72118;BME280;59992;47.490;8.736;2023-08-07T10:00:22;96957.20;;;17.46;63.73
72118;BME280;59992;47.490;8.736;2023-08-07T10:03:14;96949.38;;;17.48;63.40
72118;BME280;59992;47.490;8.736;2023-08-07T10:06:05;96948.77;;;17.45;63.79
72118;BME280;59992;47.490;8.736;2023-08-07T10:08:57;96946.02;;;17.47;64.22
72118;BME280;59992;47.490;8.736;2023-08-07T10:11:51;96945.28;;;17.54;64.51
72118;BME280;59992;47.490;8.736;2023-08-07T10:14:42;96943.91;;;17.63;65.55
72118;BME280;59992;47.490;8.736;2023-08-07T10:17:33;96942.77;;;17.70;63.75
72118;BME280;59992;47.490;8.736;2023-08-07T10:20:23;96950.16;;;17.77;62.86
72118;BME280;59992;47.490;8.736;2023-08-07T10:23:16;96954.05;;;17.60;62.09
72118;BME280;59992;47.490;8.736;2023-08-07T10:26:08;96958.58;;;17.46;62.11
72118;BME280;59992;47.490;8.736;2023-08-07T10:29:00;96962.80;;;17.45;63.35
72118;BME280;59992;47.490;8.736;2023-08-07T10:31:52;96961.31;;;17.27;63.10
72118;BME280;59992;47.490;8.736;2023-08-07T10:34:49;96961.94;;;17.26;63.97
72118;BME280;59992;47.490;8.736;2023-08-07T10:37:43;96953.98;;;17.15;64.13
72118;BME280;59992;47.490;8.736;2023-08-07T10:40:33;96961.31;;;17.02;63.67
72118;BME280;59992;47.490;8.736;2023-08-07T10:43:25;96960.92;;;16.78;64.96
72118;BME280;59992;47.490;8.736;2023-08-07T10:46:19;96960.93;;;16.89;66.07
72118;BME280;59992;47.490;8.736;2023-08-07T10:49:09;96959.14;;;16.83;67.86
72118;BME280;59992;47.490;8.736;2023-08-07T10:52:01;96957.73;;;16.86;66.99
72118;BME280;59992;47.490;8.736;2023-08-07T10:54:51;96956.84;;;16.95;67.80
72118;BME280;59992;47.490;8.736;2023-08-07T10:57:41;96963.22;;;17.01;69.63
72118;BME280;59992;47.490;8.736;2023-08-07T11:00:31;96969.20;;;17.04;71.03
72118;BME280;59992;47.490;8.736;2023-08-07T11:03:36;96973.64;;;17.01;71.55
72118;BME280;59992;47.490;8.736;2023-08-07T11:06:27;96978.34;;;16.96;71.55
72118;BME280;59992;47.490;8.736;2023-08-07T11:09:20;96980.23;;;16.87;71.83
72118;BME280;59992;47.490;8.736;2023-08-07T11:12:10;96981.45;;;16.72;72.66
72118;BME280;59992;47.490;8.736;2023-08-07T11:15:01;96982.32;;;16.81;73.98
72118;BME280;59992;47.490;8.736;2023-08-07T11:17:51;96985.60;;;16.84;73.14
72118;BME280;59992;47.490;8.736;2023-08-07T11:20:42;96981.60;;;16.86;70.88
72118;BME280;59992;47.490;8.736;2023-08-07T11:23:32;96979.41;;;16.81;69.24
72118;BME280;59992;47.490;8.736;2023-08-07T11:26:22;96978.02;;;16.98;72.03
72118;BME280;59992;47.490;8.736;2023-08-07T11:29:18;96976.73;;;17.09;70.16
72118;BME280;59992;47.490;8.736;2023-08-07T11:32:09;96971.30;;;17.11;71.88
72118;BME280;59992;47.490;8.736;2023-08-07T11:34:59;96971.75;;;17.25;71.40
72118;BME280;59992;47.490;8.736;2023-08-07T11:37:52;96976.94;;;17.25;70.05
72118;BME280;59992;47.490;8.736;2023-08-07T11:40:43;96969.98;;;17.13;69.07
72118;BME280;59992;47.490;8.736;2023-08-07T11:43:33;96964.27;;;17.07;69.48
72118;BME280;59992;47.490;8.736;2023-08-07T11:46:24;96963.05;;;16.93;71.55
72118;BME280;59992;47.490;8.736;2023-08-07T11:49:14;96959.92;;;16.79;71.17
72118;BME280;59992;47.490;8.736;2023-08-07T11:52:05;96959.89;;;16.84;71.54
72118;BME280;59992;47.490;8.736;2023-08-07T11:54:55;96959.60;;;16.79;73.33
72118;BME280;59992;47.490;8.736;2023-08-07T11:57:46;96958.58;;;16.86;75.44
72118;BME280;59992;47.490;8.736;2023-08-07T12:00:37;96957.52;;;16.85;73.58
72118;BME280;59992;47.490;8.736;2023-08-07T12:03:31;96958.70;;;16.77;72.65
72118;BME280;59992;47.490;8.736;2023-08-07T12:06:23;96957.66;;;16.72;71.71
72118;BME280;59992;47.490;8.736;2023-08-07T12:09:13;96957.41;;;16.74;71.87
72118;BME280;59992;47.490;8.736;2023-08-07T12:12:05;96958.11;;;16.75;71.11
72118;BME280;59992;47.490;8.736;2023-08-07T12:14:55;96958.84;;;16.80;72.82
72118;BME280;59992;47.490;8.736;2023-08-07T12:17:46;96956.46;;;16.95;68.82
72118;BME280;59992;47.490;8.736;2023-08-07T12:20:35;96955.95;;;17.04;68.88
72118;BME280;59992;47.490;8.736;2023-08-07T12:23:26;96953.27;;;17.15;67.06
72118;BME280;59992;47.490;8.736;2023-08-07T12:26:16;96954.86;;;17.39;67.28
72118;BME280;59992;47.490;8.736;2023-08-07T12:29:06;96952.73;;;17.61;64.37
72118;BME280;59992;47.490;8.736;2023-08-07T12:31:56;96947.36;;;17.72;61.73
72118;BME280;59992;47.490;8.736;2023-08-07T12:34:47;96942.56;;;17.85;61.26
72118;BME280;59992;47.490;8.736;2023-08-07T12:37:38;96945.52;;;18.03;61.58
72118;BME280;59992;47.490;8.736;2023-08-07T12:40:29;96947.55;;;18.21;61.01
72118;BME280;59992;47.490;8.736;2023-08-07T12:43:19;96951.15;;;18.29;57.01
72118;BME280;59992;47.490;8.736;2023-08-07T12:46:09;96952.27;;;18.39;57.86
72118;BME280;59992;47.490;8.736;2023-08-07T12:48:59;96945.37;;;18.39;54.83
72118;BME280;59992;47.490;8.736;2023-08-07T12:51:50;96949.08;;;18.53;55.63
72118;BME280;59992;47.490;8.736;2023-08-07T12:54:40;96952.48;;;18.74;56.06
72118;BME280;59992;47.490;8.736;2023-08-07T12:57:30;96951.73;;;18.67;54.52
72118;BME280;59992;47.490;8.736;2023-08-07T13:00:21;96949.36;;;18.84;55.74
72118;BME280;59992;47.490;8.736;2023-08-07T13:03:11;96948.66;;;18.91;55.41
72118;BME280;59992;47.490;8.736;2023-08-07T13:06:01;96954.33;;;18.74;53.04
72118;BME280;59992;47.490;8.736;2023-08-07T13:08:54;96956.88;;;18.54;54.17
72118;BME280;59992;47.490;8.736;2023-08-07T13:11:44;96959.58;;;18.45;56.32
72118;BME280;59992;47.490;8.736;2023-08-07T13:14:34;96965.39;;;18.32;55.97
72118;BME280;59992;47.490;8.736;2023-08-07T13:17:24;96962.19;;;18.23;54.60
72118;BME280;59992;47.490;8.736;2023-08-07T13:20:15;96965.65;;;18.28;53.35
72118;BME280;59992;47.490;8.736;2023-08-07T13:23:06;96970.27;;;18.26;53.83
72118;BME280;59992;47.490;8.736;2023-08-07T13:25:56;96969.70;;;18.30;55.17
72118;BME280;59992;47.490;8.736;2023-08-07T13:28:46;96967.95;;;18.36;55.32
72118;BME280;59992;47.490;8.736;2023-08-07T13:31:36;96973.80;;;18.34;55.23
72118;BME280;59992;47.490;8.736;2023-08-07T13:34:26;96974.91;;;18.15;54.88
72118;BME280;59992;47.490;8.736;2023-08-07T13:37:16;96978.45;;;18.07;55.12
72118;BME280;59992;47.490;8.736;2023-08-07T13:40:08;96978.69;;;18.07;56.82
72118;BME280;59992;47.490;8.736;2023-08-07T13:43:00;96977.20;;;18.02;59.10
72118;BME280;59992;47.490;8.736;2023-08-07T13:45:56;96975.89;;;18.00;57.63
72118;BME280;59992;47.490;8.736;2023-08-07T13:48:46;96973.51;;;17.94;57.68
72118;BME280;59992;47.490;8.736;2023-08-07T13:51:36;96973.45;;;17.91;57.07
72118;BME280;59992;47.490;8.736;2023-08-07T13:54:26;96970.61;;;17.92;57.75
72118;BME280;59992;47.490;8.736;2023-08-07T13:57:17;96965.11;;;17.90;59.09
72118;BME280;59992;47.490;8.736;2023-08-07T14:00:09;96966.31;;;18.01;57.38
72118;BME280;59992;47.490;8.736;2023-08-07T14:03:00;96969.45;;;18.09;56.49
72118;BME280;59992;47.490;8.736;2023-08-07T14:05:51;96967.16;;;18.09;58.13
72118;BME280;59992;47.490;8.736;2023-08-07T14:08:41;96973.81;;;18.03;58.44
72118;BME280;59992;47.490;8.736;2023-08-07T14:11:31;96974.63;;;17.90;59.09
72118;BME280;59992;47.490;8.736;2023-08-07T14:14:21;96990.77;;;17.75;64.42
72118;BME280;59992;47.490;8.736;2023-08-07T14:17:11;96984.52;;;17.62;68.33
72118;BME280;59992;47.490;8.736;2023-08-07T14:20:01;96988.30;;;17.57;71.68
72118;BME280;59992;47.490;8.736;2023-08-07T14:22:53;96990.92;;;17.56;70.13
72118;BME280;59992;47.490;8.736;2023-08-07T14:25:43;96990.73;;;17.61;69.28
72118;BME280;59992;47.490;8.736;2023-08-07T14:28:34;96991.33;;;17.64;66.96
72118;BME280;59992;47.490;8.736;2023-08-07T14:31:24;96980.71;;;17.59;69.89
72118;BME280;59992;47.490;8.736;2023-08-07T14:34:14;96991.68;;;17.68;71.55
72118;BME280;59992;47.490;8.736;2023-08-07T14:37:05;96988.89;;;17.71;69.36
72118;BME280;59992;47.490;8.736;2023-08-07T14:39:55;96995.52;;;17.75;67.85
72118;BME280;59992;47.490;8.736;2023-08-07T14:42:45;97005.36;;;17.79;67.49
72118;BME280;59992;47.490;8.736;2023-08-07T14:45:36;97010.08;;;17.76;68.07
72118;BME280;59992;47.490;8.736;2023-08-07T14:48:26;97004.58;;;17.62;65.21
72118;BME280;59992;47.490;8.736;2023-08-07T14:51:16;97005.55;;;17.55;65.83
72118;BME280;59992;47.490;8.736;2023-08-07T14:54:06;97005.60;;;17.49;67.47
72118;BME280;59992;47.490;8.736;2023-08-07T14:56:56;96999.67;;;17.51;65.95
72118;BME280;59992;47.490;8.736;2023-08-07T14:59:47;97000.02;;;17.49;66.19
72118;BME280;59992;47.490;8.736;2023-08-07T15:02:37;96999.58;;;17.55;65.37
72118;BME280;59992;47.490;8.736;2023-08-07T15:05:28;96996.19;;;17.59;64.91